sensor_id;sensor_type;location;lat;lon;timestamp;temperature;humidity
18779;DHT22;9518;51.720;14.384;2022-10-26T00:01:51;7.60;99.90
18779;DHT22;9518;51.720;14.384;2022-10-26T00:04:18;7.50;99.90
18779;DHT22;9518;51.720;14.384;2022-10-26T00:06:47;7.50;99.90
18779;DHT22;9518;51.720;14.384;2022-10-26T00:09:14;7.60;99.90
18779;DHT22;9518;51.720;14.384;2022-10-26T00:11:51;7.60;99.90
18779;DHT22;9518;51.720;14.384;2022-10-26T00:14:22;7.60;99.90
18779;DHT22;9518;51.720;14.384;2022-10-26T00:16:50;7.50;99.90
18779;DHT22;9518;51.720;14.384;2022-10-26T00:19:18;7.30;99.90
18779;DHT22;9518;51.720;14.384;2022-10-26T00:24:54;7.10;99.90
18779;DHT22;9518;51.720;14.384;2022-10-26T00:27:23;7.00;99.90
18779;DHT22;9518;51.720;14.384;2022-10-26T00:43:45;6.80;99.90
18779;DHT22;9518;51.720;14.384;2022-10-26T01:06:26;6.50;99.90
18779;DHT22;9518;51.720;14.384;2022-10-26T01:09:18;6.40;99.90
18779;DHT22;9518;51.720;14.384;2022-10-26T01:11:49;6.40;99.90
18779;DHT22;9518;51.720;14.384;2022-10-26T01:14:17;6.30;99.90
18779;DHT22;9518;51.720;14.384;2022-10-26T01:16:53;6.30;99.90
18779;DHT22;9518;51.720;14.384;2022-10-26T01:23:04;6.20;99.90
18779;DHT22;9518;51.720;14.384;2022-10-26T01:26:15;6.20;99.90
18779;DHT22;9518;51.720;14.384;2022-10-26T01:29:13;6.30;99.90
18779;DHT22;9518;51.720;14.384;2022-10-26T01:32:03;6.30;99.90
18779;DHT22;9518;51.720;14.384;2022-10-26T01:37:17;6.20;99.90
18779;DHT22;9518;51.720;14.384;2022-10-26T01:37:35;6.20;99.90
18779;DHT22;9518;51.720;14.384;2022-10-26T01:40:15;6.10;99.90
18779;DHT22;9518;51.720;14.384;2022-10-26T01:42:53;6.00;99.90
18779;DHT22;9518;51.720;14.384;2022-10-26T01:46:02;6.00;99.90
18779;DHT22;9518;51.720;14.384;2022-10-26T01:48:43;6.00;99.90
18779;DHT22;9518;51.720;14.384;2022-10-26T01:51:32;5.90;99.90
18779;DHT22;9518;51.720;14.384;2022-10-26T01:54:02;5.90;99.90
18779;DHT22;9518;51.720;14.384;2022-10-26T01:56:40;5.80;99.90
18779;DHT22;9518;51.720;14.384;2022-10-26T01:59:55;5.80;99.90
18779;DHT22;9518;51.720;14.384;2022-10-26T02:02:59;5.90;99.90
18779;DHT22;9518;51.720;14.384;2022-10-26T02:08:53;6.10;99.90
18779;DHT22;9518;51.720;14.384;2022-10-26T02:11:31;6.10;99.90
18779;DHT22;9518;51.720;14.384;2022-10-26T02:14:12;6.00;99.90
18779;DHT22;9518;51.720;14.384;2022-10-26T02:16:51;6.10;99.90
18779;DHT22;9518;51.720;14.384;2022-10-26T02:19:26;6.00;99.90
18779;DHT22;9518;51.720;14.384;2022-10-26T02:22:06;5.90;99.90
18779;DHT22;9518;51.720;14.384;2022-10-26T02:24:43;5.80;99.90
18779;DHT22;9518;51.720;14.384;2022-10-26T02:27:15;5.70;99.90
18779;DHT22;9518;51.720;14.384;2022-10-26T02:29:52;5.70;99.90
18779;DHT22;9518;51.720;14.384;2022-10-26T02:32:21;5.60;99.90
18779;DHT22;9518;51.720;14.384;2022-10-26T02:34:50;5.60;99.90
18779;DHT22;9518;51.720;14.384;2022-10-26T02:37:22;5.60;99.90
18779;DHT22;9518;51.720;14.384;2022-10-26T02:39:56;5.60;99.90
18779;DHT22;9518;51.720;14.384;2022-10-26T02:42:24;5.60;99.90
18779;DHT22;9518;51.720;14.384;2022-10-26T02:44:54;5.60;99.90
18779;DHT22;9518;51.720;14.384;2022-10-26T02:47:26;5.60;99.90
18779;DHT22;9518;51.720;14.384;2022-10-26T02:50:02;5.80;99.90
18779;DHT22;9518;51.720;14.384;2022-10-26T02:52:34;5.90;99.90
18779;DHT22;9518;51.720;14.384;2022-10-26T02:55:09;5.90;99.90
18779;DHT22;9518;51.720;14.384;2022-10-26T02:57:39;5.90;99.90
18779;DHT22;9518;51.720;14.384;2022-10-26T03:00:09;5.80;99.90
18779;DHT22;9518;51.720;14.384;2022-10-26T03:02:36;5.60;99.90
18779;DHT22;9518;51.720;14.384;2022-10-26T03:05:08;5.50;99.90
18779;DHT22;9518;51.720;14.384;2022-10-26T03:07:36;5.40;99.90
18779;DHT22;9518;51.720;14.384;2022-10-26T03:10:03;5.40;99.90
18779;DHT22;9518;51.720;14.384;2022-10-26T03:12:31;5.50;99.90
18779;DHT22;9518;51.720;14.384;2022-10-26T03:14:58;5.40;99.90
18779;DHT22;9518;51.720;14.384;2022-10-26T03:17:25;5.40;99.90
18779;DHT22;9518;51.720;14.384;2022-10-26T03:19:52;5.40;99.90
18779;DHT22;9518;51.720;14.384;2022-10-26T03:22:19;5.30;99.90
18779;DHT22;9518;51.720;14.384;2022-10-26T03:24:46;5.30;99.90
18779;DHT22;9518;51.720;14.384;2022-10-26T03:27:13;5.30;99.90
18779;DHT22;9518;51.720;14.384;2022-10-26T03:29:41;5.40;99.90
18779;DHT22;9518;51.720;14.384;2022-10-26T03:32:08;5.40;99.90
18779;DHT22;9518;51.720;14.384;2022-10-26T03:34:34;5.50;99.90
18779;DHT22;9518;51.720;14.384;2022-10-26T03:37:01;5.40;99.90
18779;DHT22;9518;51.720;14.384;2022-10-26T03:39:28;5.40;99.90
18779;DHT22;9518;51.720;14.384;2022-10-26T03:41:55;5.30;99.90
18779;DHT22;9518;51.720;14.384;2022-10-26T03:44:22;5.20;99.90
18779;DHT22;9518;51.720;14.384;2022-10-26T03:46:50;5.10;99.90
18779;DHT22;9518;51.720;14.384;2022-10-26T03:49:17;5.10;99.90
18779;DHT22;9518;51.720;14.384;2022-10-26T03:51:43;5.10;99.90
18779;DHT22;9518;51.720;14.384;2022-10-26T03:54:10;5.00;99.90
18779;DHT22;9518;51.720;14.384;2022-10-26T03:56:37;5.00;99.90
18779;DHT22;9518;51.720;14.384;2022-10-26T03:59:04;5.00;99.90
18779;DHT22;9518;51.720;14.384;2022-10-26T04:01:31;4.90;99.90
18779;DHT22;9518;51.720;14.384;2022-10-26T04:03:59;4.90;99.90
18779;DHT22;9518;51.720;14.384;2022-10-26T04:06:26;4.90;99.90
18779;DHT22;9518;51.720;14.384;2022-10-26T04:08:55;4.90;99.90
18779;DHT22;9518;51.720;14.384;2022-10-26T04:11:26;4.90;99.90
18779;DHT22;9518;51.720;14.384;2022-10-26T04:13:53;4.80;99.90
18779;DHT22;9518;51.720;14.384;2022-10-26T04:16:21;4.80;99.90
18779;DHT22;9518;51.720;14.384;2022-10-26T04:18:48;4.70;99.90
18779;DHT22;9518;51.720;14.384;2022-10-26T04:21:16;4.70;99.90
18779;DHT22;9518;51.720;14.384;2022-10-26T04:23:43;4.70;99.90
18779;DHT22;9518;51.720;14.384;2022-10-26T04:26:09;4.70;99.90
18779;DHT22;9518;51.720;14.384;2022-10-26T04:28:36;4.70;99.90
18779;DHT22;9518;51.720;14.384;2022-10-26T04:31:03;4.70;99.90
18779;DHT22;9518;51.720;14.384;2022-10-26T04:33:30;4.70;99.90
18779;DHT22;9518;51.720;14.384;2022-10-26T04:36:00;4.70;99.90
18779;DHT22;9518;51.720;14.384;2022-10-26T04:38:28;4.70;99.90
18779;DHT22;9518;51.720;14.384;2022-10-26T04:40:55;4.80;99.90
18779;DHT22;9518;51.720;14.384;2022-10-26T04:43:22;4.80;99.90
18779;DHT22;9518;51.720;14.384;2022-10-26T04:45:48;4.70;99.90
18779;DHT22;9518;51.720;14.384;2022-10-26T04:48:15;4.70;99.90
18779;DHT22;9518;51.720;14.384;2022-10-26T04:50:42;4.70;99.90
18779;DHT22;9518;51.720;14.384;2022-10-26T04:53:10;4.70;99.90
18779;DHT22;9518;51.720;14.384;2022-10-26T04:55:39;4.60;99.90
18779;DHT22;9518;51.720;14.384;2022-10-26T04:58:06;4.70;99.90
18779;DHT22;9518;51.720;14.384;2022-10-26T05:00:33;4.70;99.90
18779;DHT22;9518;51.720;14.384;2022-10-26T05:03:03;4.70;99.90
18779;DHT22;9518;51.720;14.384;2022-10-26T05:05:34;4.80;99.90
18779;DHT22;9518;51.720;14.384;2022-10-26T05:08:01;4.80;99.90
18779;DHT22;9518;51.720;14.384;2022-10-26T05:10:28;4.80;99.90
18779;DHT22;9518;51.720;14.384;2022-10-26T05:12:57;4.70;99.90
18779;DHT22;9518;51.720;14.384;2022-10-26T05:15:25;4.70;99.90
18779;DHT22;9518;51.720;14.384;2022-10-26T05:17:55;4.60;99.90
18779;DHT22;9518;51.720;14.384;2022-10-26T05:20:23;4.60;99.90
18779;DHT22;9518;51.720;14.384;2022-10-26T05:22:54;4.50;99.90
18779;DHT22;9518;51.720;14.384;2022-10-26T05:25:24;4.50;99.90
18779;DHT22;9518;51.720;14.384;2022-10-26T05:27:50;4.50;99.90
18779;DHT22;9518;51.720;14.384;2022-10-26T05:30:19;4.50;99.90
18779;DHT22;9518;51.720;14.384;2022-10-26T05:32:52;4.40;99.90
18779;DHT22;9518;51.720;14.384;2022-10-26T05:35:19;4.30;99.90
18779;DHT22;9518;51.720;14.384;2022-10-26T05:37:46;4.40;99.90
18779;DHT22;9518;51.720;14.384;2022-10-26T05:40:13;4.40;99.90
18779;DHT22;9518;51.720;14.384;2022-10-26T05:42:40;4.50;99.90
18779;DHT22;9518;51.720;14.384;2022-10-26T05:45:07;4.50;99.90
18779;DHT22;9518;51.720;14.384;2022-10-26T05:47:40;4.50;99.90
18779;DHT22;9518;51.720;14.384;2022-10-26T05:50:08;4.50;99.90
18779;DHT22;9518;51.720;14.384;2022-10-26T05:52:38;4.40;99.90
18779;DHT22;9518;51.720;14.384;2022-10-26T05:55:06;4.40;99.90
18779;DHT22;9518;51.720;14.384;2022-10-26T05:57:34;4.50;99.90
18779;DHT22;9518;51.720;14.384;2022-10-26T06:00:05;4.50;99.90
18779;DHT22;9518;51.720;14.384;2022-10-26T06:02:46;4.60;99.90
18779;DHT22;9518;51.720;14.384;2022-10-26T06:05:20;4.60;99.90
18779;DHT22;9518;51.720;14.384;2022-10-26T06:07:48;4.60;99.90
18779;DHT22;9518;51.720;14.384;2022-10-26T06:10:16;4.70;99.90
18779;DHT22;9518;51.720;14.384;2022-10-26T06:12:43;4.70;99.90
18779;DHT22;9518;51.720;14.384;2022-10-26T06:15:16;4.80;99.90
18779;DHT22;9518;51.720;14.384;2022-10-26T06:17:54;4.90;99.90
18779;DHT22;9518;51.720;14.384;2022-10-26T06:20:41;5.00;99.90
18779;DHT22;9518;51.720;14.384;2022-10-26T06:23:26;5.10;99.90
18779;DHT22;9518;51.720;14.384;2022-10-26T06:26:01;5.10;99.90
18779;DHT22;9518;51.720;14.384;2022-10-26T06:28:35;5.20;99.90
18779;DHT22;9518;51.720;14.384;2022-10-26T06:31:06;5.30;99.90
18779;DHT22;9518;51.720;14.384;2022-10-26T06:33:34;5.50;99.90
18779;DHT22;9518;51.720;14.384;2022-10-26T06:36:10;5.70;99.90
18779;DHT22;9518;51.720;14.384;2022-10-26T06:38:42;5.80;99.90
18779;DHT22;9518;51.720;14.384;2022-10-26T06:41:11;5.80;99.90
18779;DHT22;9518;51.720;14.384;2022-10-26T06:43:40;5.90;99.90
18779;DHT22;9518;51.720;14.384;2022-10-26T06:46:28;6.00;99.90
18779;DHT22;9518;51.720;14.384;2022-10-26T06:49:02;6.10;99.90
18779;DHT22;9518;51.720;14.384;2022-10-26T06:51:37;6.20;99.90
18779;DHT22;9518;51.720;14.384;2022-10-26T06:54:12;6.20;99.90
18779;DHT22;9518;51.720;14.384;2022-10-26T06:56:41;6.30;99.90
18779;DHT22;9518;51.720;14.384;2022-10-26T06:59:14;6.50;99.90
18779;DHT22;9518;51.720;14.384;2022-10-26T07:01:45;6.60;99.90
18779;DHT22;9518;51.720;14.384;2022-10-26T07:04:13;6.70;99.90
18779;DHT22;9518;51.720;14.384;2022-10-26T07:06:40;6.90;99.90
18779;DHT22;9518;51.720;14.384;2022-10-26T07:09:07;7.00;99.90
18779;DHT22;9518;51.720;14.384;2022-10-26T07:11:34;7.20;99.90
18779;DHT22;9518;51.720;14.384;2022-10-26T07:14:01;7.40;99.90
18779;DHT22;9518;51.720;14.384;2022-10-26T07:16:28;7.50;99.90
18779;DHT22;9518;51.720;14.384;2022-10-26T07:18:55;7.60;99.90
18779;DHT22;9518;51.720;14.384;2022-10-26T07:21:23;7.80;99.90
18779;DHT22;9518;51.720;14.384;2022-10-26T07:23:50;7.90;99.90
18779;DHT22;9518;51.720;14.384;2022-10-26T07:26:23;8.00;99.90
18779;DHT22;9518;51.720;14.384;2022-10-26T07:28:52;8.10;99.90
18779;DHT22;9518;51.720;14.384;2022-10-26T07:31:19;8.20;99.90
18779;DHT22;9518;51.720;14.384;2022-10-26T07:33:46;8.30;99.90
18779;DHT22;9518;51.720;14.384;2022-10-26T07:36:12;8.40;99.90
18779;DHT22;9518;51.720;14.384;2022-10-26T07:38:41;8.50;99.90
18779;DHT22;9518;51.720;14.384;2022-10-26T07:41:07;8.60;99.90
18779;DHT22;9518;51.720;14.384;2022-10-26T07:43:34;8.70;99.90
18779;DHT22;9518;51.720;14.384;2022-10-26T07:46:01;8.80;99.90
18779;DHT22;9518;51.720;14.384;2022-10-26T07:48:28;8.80;99.90
18779;DHT22;9518;51.720;14.384;2022-10-26T07:50:55;9.00;99.90
18779;DHT22;9518;51.720;14.384;2022-10-26T07:53:22;9.00;99.90
18779;DHT22;9518;51.720;14.384;2022-10-26T07:55:54;9.10;99.90
18779;DHT22;9518;51.720;14.384;2022-10-26T07:58:24;9.20;99.90
18779;DHT22;9518;51.720;14.384;2022-10-26T08:00:52;9.30;99.90
18779;DHT22;9518;51.720;14.384;2022-10-26T08:03:19;9.40;99.90
18779;DHT22;9518;51.720;14.384;2022-10-26T08:05:46;9.50;99.90
18779;DHT22;9518;51.720;14.384;2022-10-26T08:08:16;9.50;99.90
18779;DHT22;9518;51.720;14.384;2022-10-26T08:10:43;9.60;99.90
18779;DHT22;9518;51.720;14.384;2022-10-26T08:13:11;9.80;99.90
18779;DHT22;9518;51.720;14.384;2022-10-26T08:15:38;9.90;99.90
18779;DHT22;9518;51.720;14.384;2022-10-26T08:18:05;10.00;99.90
18779;DHT22;9518;51.720;14.384;2022-10-26T08:20:34;10.10;99.90
18779;DHT22;9518;51.720;14.384;2022-10-26T08:23:01;10.30;99.90
18779;DHT22;9518;51.720;14.384;2022-10-26T08:25:30;10.50;99.90
18779;DHT22;9518;51.720;14.384;2022-10-26T08:28:00;10.60;99.90
18779;DHT22;9518;51.720;14.384;2022-10-26T08:30:29;10.80;99.90
18779;DHT22;9518;51.720;14.384;2022-10-26T08:32:59;11.10;99.90
18779;DHT22;9518;51.720;14.384;2022-10-26T08:35:26;11.20;99.90
18779;DHT22;9518;51.720;14.384;2022-10-26T08:37:53;11.30;99.90
18779;DHT22;9518;51.720;14.384;2022-10-26T08:40:23;11.40;99.90
18779;DHT22;9518;51.720;14.384;2022-10-26T08:42:54;11.40;99.90
18779;DHT22;9518;51.720;14.384;2022-10-26T08:45:26;11.40;99.90
18779;DHT22;9518;51.720;14.384;2022-10-26T08:47:59;11.60;99.90
18779;DHT22;9518;51.720;14.384;2022-10-26T08:50:30;11.80;99.90
18779;DHT22;9518;51.720;14.384;2022-10-26T08:53:02;11.90;99.90
18779;DHT22;9518;51.720;14.384;2022-10-26T08:55:37;12.10;99.90
18779;DHT22;9518;51.720;14.384;2022-10-26T08:58:11;12.30;99.90
18779;DHT22;9518;51.720;14.384;2022-10-26T09:00:40;12.50;99.90
18779;DHT22;9518;51.720;14.384;2022-10-26T09:03:13;12.80;99.90
18779;DHT22;9518;51.720;14.384;2022-10-26T09:05:51;12.90;99.90
18779;DHT22;9518;51.720;14.384;2022-10-26T09:08:29;13.00;99.90
18779;DHT22;9518;51.720;14.384;2022-10-26T09:11:05;13.20;99.90
18779;DHT22;9518;51.720;14.384;2022-10-26T09:13:42;13.20;99.90
18779;DHT22;9518;51.720;14.384;2022-10-26T09:16:21;13.40;99.90
18779;DHT22;9518;51.720;14.384;2022-10-26T09:18:58;13.60;99.90
18779;DHT22;9518;51.720;14.384;2022-10-26T09:21:37;13.90;99.90
18779;DHT22;9518;51.720;14.384;2022-10-26T09:24:12;14.20;99.90
18779;DHT22;9518;51.720;14.384;2022-10-26T09:26:52;14.50;99.90
18779;DHT22;9518;51.720;14.384;2022-10-26T09:29:24;14.80;99.90
18779;DHT22;9518;51.720;14.384;2022-10-26T09:31:54;15.00;99.90
18779;DHT22;9518;51.720;14.384;2022-10-26T09:34:30;15.00;99.90
18779;DHT22;9518;51.720;14.384;2022-10-26T09:37:12;15.30;99.90
18779;DHT22;9518;51.720;14.384;2022-10-26T09:39:47;15.40;99.90
18779;DHT22;9518;51.720;14.384;2022-10-26T09:42:19;15.50;99.90
18779;DHT22;9518;51.720;14.384;2022-10-26T09:44:50;15.70;99.90
18779;DHT22;9518;51.720;14.384;2022-10-26T09:47:28;15.90;99.90
18779;DHT22;9518;51.720;14.384;2022-10-26T09:50:04;16.00;99.90
18779;DHT22;9518;51.720;14.384;2022-10-26T09:52:32;16.20;99.90
18779;DHT22;9518;51.720;14.384;2022-10-26T09:54:59;16.50;99.90
18779;DHT22;9518;51.720;14.384;2022-10-26T09:57:26;16.80;81.60
18779;DHT22;9518;51.720;14.384;2022-10-26T09:59:53;16.80;45.10
18779;DHT22;9518;51.720;14.384;2022-10-26T10:05:27;16.80;78.00
18779;DHT22;9518;51.720;14.384;2022-10-26T10:08:14;16.70;47.60
18779;DHT22;9518;51.720;14.384;2022-10-26T10:10:53;16.90;1.00
18779;DHT22;9518;51.720;14.384;2022-10-26T10:13:28;17.10;1.00
18779;DHT22;9518;51.720;14.384;2022-10-26T10:16:05;17.40;99.90
18779;DHT22;9518;51.720;14.384;2022-10-26T10:18:34;17.40;1.00
18779;DHT22;9518;51.720;14.384;2022-10-26T10:21:05;17.60;1.00
18779;DHT22;9518;51.720;14.384;2022-10-26T10:23:34;17.60;1.00
18779;DHT22;9518;51.720;14.384;2022-10-26T10:26:06;17.60;1.00
18779;DHT22;9518;51.720;14.384;2022-10-26T10:28:35;17.30;1.00
18779;DHT22;9518;51.720;14.384;2022-10-26T10:31:04;17.00;1.00
18779;DHT22;9518;51.720;14.384;2022-10-26T10:33:36;16.80;1.00
18779;DHT22;9518;51.720;14.384;2022-10-26T10:36:08;16.60;1.00
18779;DHT22;9518;51.720;14.384;2022-10-26T10:38:40;16.40;97.10
18779;DHT22;9518;51.720;14.384;2022-10-26T10:41:19;16.30;1.00
18779;DHT22;9518;51.720;14.384;2022-10-26T10:43:50;16.30;99.90
18779;DHT22;9518;51.720;14.384;2022-10-26T10:46:23;16.40;99.90
18779;DHT22;9518;51.720;14.384;2022-10-26T10:48:59;16.60;99.90
18779;DHT22;9518;51.720;14.384;2022-10-26T10:51:30;16.70;1.00
18779;DHT22;9518;51.720;14.384;2022-10-26T10:54:01;16.80;1.00
18779;DHT22;9518;51.720;14.384;2022-10-26T10:56:34;16.90;1.00
18779;DHT22;9518;51.720;14.384;2022-10-26T11:01:58;17.30;1.00
18779;DHT22;9518;51.720;14.384;2022-10-26T11:04:37;17.60;1.00
18779;DHT22;9518;51.720;14.384;2022-10-26T11:07:12;17.60;1.00
18779;DHT22;9518;51.720;14.384;2022-10-26T11:09:43;17.50;1.00
18779;DHT22;9518;51.720;14.384;2022-10-26T11:12:14;17.40;1.00
18779;DHT22;9518;51.720;14.384;2022-10-26T11:14:45;17.50;1.00
18779;DHT22;9518;51.720;14.384;2022-10-26T11:17:17;17.60;1.00
18779;DHT22;9518;51.720;14.384;2022-10-26T11:19:48;17.80;1.00
18779;DHT22;9518;51.720;14.384;2022-10-26T11:22:19;18.00;1.00
18779;DHT22;9518;51.720;14.384;2022-10-26T11:25:00;18.10;1.00
18779;DHT22;9518;51.720;14.384;2022-10-26T11:27:33;18.20;1.00
18779;DHT22;9518;51.720;14.384;2022-10-26T11:30:04;18.30;1.00
18779;DHT22;9518;51.720;14.384;2022-10-26T11:32:36;18.10;1.00
18779;DHT22;9518;51.720;14.384;2022-10-26T11:35:09;17.90;1.00
18779;DHT22;9518;51.720;14.384;2022-10-26T11:37:44;17.90;1.00
18779;DHT22;9518;51.720;14.384;2022-10-26T11:40:21;17.90;1.00
18779;DHT22;9518;51.720;14.384;2022-10-26T11:42:56;18.00;1.00
18779;DHT22;9518;51.720;14.384;2022-10-26T11:45:31;17.80;1.00
18779;DHT22;9518;51.720;14.384;2022-10-26T11:48:03;17.70;1.00
18779;DHT22;9518;51.720;14.384;2022-10-26T11:50:37;17.60;1.00
18779;DHT22;9518;51.720;14.384;2022-10-26T11:53:11;17.60;1.00
18779;DHT22;9518;51.720;14.384;2022-10-26T11:55:43;17.60;1.00
18779;DHT22;9518;51.720;14.384;2022-10-26T11:58:15;17.50;1.00
18779;DHT22;9518;51.720;14.384;2022-10-26T12:00:47;17.50;1.00
18779;DHT22;9518;51.720;14.384;2022-10-26T12:03:17;17.60;1.00
18779;DHT22;9518;51.720;14.384;2022-10-26T12:05:49;17.60;1.00
18779;DHT22;9518;51.720;14.384;2022-10-26T12:08:22;17.70;1.00
18779;DHT22;9518;51.720;14.384;2022-10-26T12:10:55;17.80;1.00
18779;DHT22;9518;51.720;14.384;2022-10-26T12:13:29;17.80;1.00
18779;DHT22;9518;51.720;14.384;2022-10-26T12:16:03;17.80;1.00
18779;DHT22;9518;51.720;14.384;2022-10-26T12:18:38;17.80;1.00
18779;DHT22;9518;51.720;14.384;2022-10-26T12:21:07;17.80;1.00
18779;DHT22;9518;51.720;14.384;2022-10-26T12:23:38;17.80;1.00
18779;DHT22;9518;51.720;14.384;2022-10-26T12:26:38;17.80;1.00
18779;DHT22;9518;51.720;14.384;2022-10-26T12:29:37;17.90;1.00
18779;DHT22;9518;51.720;14.384;2022-10-26T12:35:43;18.00;1.00
18779;DHT22;9518;51.720;14.384;2022-10-26T12:41:23;18.10;1.00
18779;DHT22;9518;51.720;14.384;2022-10-26T12:44:00;18.10;1.00
18779;DHT22;9518;51.720;14.384;2022-10-26T12:46:38;18.10;1.00
18779;DHT22;9518;51.720;14.384;2022-10-26T12:52:48;18.10;1.00
18779;DHT22;9518;51.720;14.384;2022-10-26T12:55:40;18.10;1.00
18779;DHT22;9518;51.720;14.384;2022-10-26T13:01:38;17.90;1.00
18779;DHT22;9518;51.720;14.384;2022-10-26T13:07:21;17.90;1.00
18779;DHT22;9518;51.720;14.384;2022-10-26T13:09:59;17.90;1.00
18779;DHT22;9518;51.720;14.384;2022-10-26T13:12:36;17.90;1.00
18779;DHT22;9518;51.720;14.384;2022-10-26T13:15:18;17.80;1.00
18779;DHT22;9518;51.720;14.384;2022-10-26T13:17:56;17.70;1.00
18779;DHT22;9518;51.720;14.384;2022-10-26T13:20:24;17.90;1.00
18779;DHT22;9518;51.720;14.384;2022-10-26T13:22:51;17.90;1.00
18779;DHT22;9518;51.720;14.384;2022-10-26T13:25:23;17.90;1.00
18779;DHT22;9518;51.720;14.384;2022-10-26T13:28:01;18.00;1.00
18779;DHT22;9518;51.720;14.384;2022-10-26T13:30:43;18.00;1.00
18779;DHT22;9518;51.720;14.384;2022-10-26T13:33:22;18.30;99.90
18779;DHT22;9518;51.720;14.384;2022-10-26T13:36:05;18.50;99.90
18779;DHT22;9518;51.720;14.384;2022-10-26T13:38:37;18.70;99.90
18779;DHT22;9518;51.720;14.384;2022-10-26T13:41:17;18.80;99.90
18779;DHT22;9518;51.720;14.384;2022-10-26T13:43:46;19.20;99.90
18779;DHT22;9518;51.720;14.384;2022-10-26T13:46:23;19.70;99.90
18779;DHT22;9518;51.720;14.384;2022-10-26T13:48:52;20.40;98.80
18779;DHT22;9518;51.720;14.384;2022-10-26T13:51:22;20.80;79.90
18779;DHT22;9518;51.720;14.384;2022-10-26T13:53:58;20.70;57.20
18779;DHT22;9518;51.720;14.384;2022-10-26T13:56:31;20.40;46.70
18779;DHT22;9518;51.720;14.384;2022-10-26T13:59:00;20.10;80.70
18779;DHT22;9518;51.720;14.384;2022-10-26T14:01:46;19.60;99.90
18779;DHT22;9518;51.720;14.384;2022-10-26T14:04:37;19.30;99.90
18779;DHT22;9518;51.720;14.384;2022-10-26T14:07:15;19.00;99.90
18779;DHT22;9518;51.720;14.384;2022-10-26T14:09:49;18.40;99.90
18779;DHT22;9518;51.720;14.384;2022-10-26T14:12:17;18.10;99.90
18779;DHT22;9518;51.720;14.384;2022-10-26T14:14:44;17.90;1.00
18779;DHT22;9518;51.720;14.384;2022-10-26T14:17:18;17.50;1.00
18779;DHT22;9518;51.720;14.384;2022-10-26T14:19:45;17.30;1.00
18779;DHT22;9518;51.720;14.384;2022-10-26T14:22:18;17.10;1.00
18779;DHT22;9518;51.720;14.384;2022-10-26T14:24:50;17.00;26.00
18779;DHT22;9518;51.720;14.384;2022-10-26T14:27:19;16.80;33.50
18779;DHT22;9518;51.720;14.384;2022-10-26T14:29:47;16.70;99.90
18779;DHT22;9518;51.720;14.384;2022-10-26T14:32:27;16.50;1.00
18779;DHT22;9518;51.720;14.384;2022-10-26T14:34:56;16.40;1.00
18779;DHT22;9518;51.720;14.384;2022-10-26T14:37:35;16.20;26.40
18779;DHT22;9518;51.720;14.384;2022-10-26T14:40:11;16.10;94.20
18779;DHT22;9518;51.720;14.384;2022-10-26T14:42:47;16.00;99.90
18779;DHT22;9518;51.720;14.384;2022-10-26T14:45:33;15.90;1.00
18779;DHT22;9518;51.720;14.384;2022-10-26T14:48:24;15.70;1.00
18779;DHT22;9518;51.720;14.384;2022-10-26T14:51:01;15.50;1.00
18779;DHT22;9518;51.720;14.384;2022-10-26T14:53:33;15.40;1.00
18779;DHT22;9518;51.720;14.384;2022-10-26T14:56:03;15.40;30.70
18779;DHT22;9518;51.720;14.384;2022-10-26T14:58:31;15.30;99.90
18779;DHT22;9518;51.720;14.384;2022-10-26T15:01:14;15.10;1.00
18779;DHT22;9518;51.720;14.384;2022-10-26T15:03:43;15.10;1.00
18779;DHT22;9518;51.720;14.384;2022-10-26T15:09:32;14.90;99.90
18779;DHT22;9518;51.720;14.384;2022-10-26T15:12:03;14.80;99.90
18779;DHT22;9518;51.720;14.384;2022-10-26T15:14:30;14.70;99.90
18779;DHT22;9518;51.720;14.384;2022-10-26T15:16:58;14.60;1.00
18779;DHT22;9518;51.720;14.384;2022-10-26T15:19:27;14.50;1.00
18779;DHT22;9518;51.720;14.384;2022-10-26T15:21:54;14.50;1.00
18779;DHT22;9518;51.720;14.384;2022-10-26T15:24:31;14.40;1.00
18779;DHT22;9518;51.720;14.384;2022-10-26T15:26:59;14.30;1.00
18779;DHT22;9518;51.720;14.384;2022-10-26T15:29:37;14.20;1.00
18779;DHT22;9518;51.720;14.384;2022-10-26T15:32:20;14.20;1.00
18779;DHT22;9518;51.720;14.384;2022-10-26T15:37:58;14.10;1.00
18779;DHT22;9518;51.720;14.384;2022-10-26T15:40:26;13.90;1.00
18779;DHT22;9518;51.720;14.384;2022-10-26T15:42:57;13.80;10.90
18779;DHT22;9518;51.720;14.384;2022-10-26T15:45:26;13.70;81.80
18779;DHT22;9518;51.720;14.384;2022-10-26T15:47:56;13.50;81.60
18779;DHT22;9518;51.720;14.384;2022-10-26T15:50:26;13.30;99.90
18779;DHT22;9518;51.720;14.384;2022-10-26T15:52:55;13.10;99.90
18779;DHT22;9518;51.720;14.384;2022-10-26T15:55:25;13.00;99.90
18779;DHT22;9518;51.720;14.384;2022-10-26T15:57:53;12.90;99.90
18779;DHT22;9518;51.720;14.384;2022-10-26T16:00:22;12.80;99.90
18779;DHT22;9518;51.720;14.384;2022-10-26T16:02:51;12.70;99.90
18779;DHT22;9518;51.720;14.384;2022-10-26T16:05:18;12.70;99.90
18779;DHT22;9518;51.720;14.384;2022-10-26T16:07:46;12.70;99.90
18779;DHT22;9518;51.720;14.384;2022-10-26T16:10:17;12.60;99.90
18779;DHT22;9518;51.720;14.384;2022-10-26T16:12:47;12.60;99.90
18779;DHT22;9518;51.720;14.384;2022-10-26T16:15:16;12.60;99.90
18779;DHT22;9518;51.720;14.384;2022-10-26T16:17:44;12.50;99.90
18779;DHT22;9518;51.720;14.384;2022-10-26T16:20:14;12.50;99.90
18779;DHT22;9518;51.720;14.384;2022-10-26T16:22:41;12.30;99.90
18779;DHT22;9518;51.720;14.384;2022-10-26T16:25:16;12.20;99.90
18779;DHT22;9518;51.720;14.384;2022-10-26T16:27:43;12.20;99.90
18779;DHT22;9518;51.720;14.384;2022-10-26T16:30:12;12.10;99.90
18779;DHT22;9518;51.720;14.384;2022-10-26T16:32:39;11.90;99.90
18779;DHT22;9518;51.720;14.384;2022-10-26T16:35:07;11.90;99.90
18779;DHT22;9518;51.720;14.384;2022-10-26T16:37:34;11.80;99.90
18779;DHT22;9518;51.720;14.384;2022-10-26T16:40:01;11.80;99.90
18779;DHT22;9518;51.720;14.384;2022-10-26T16:42:29;11.70;99.90
18779;DHT22;9518;51.720;14.384;2022-10-26T16:44:56;11.70;99.90
18779;DHT22;9518;51.720;14.384;2022-10-26T16:47:24;11.70;99.90
18779;DHT22;9518;51.720;14.384;2022-10-26T16:49:51;11.60;99.90
18779;DHT22;9518;51.720;14.384;2022-10-26T16:52:18;11.50;99.90
18779;DHT22;9518;51.720;14.384;2022-10-26T16:54:45;11.40;99.90
18779;DHT22;9518;51.720;14.384;2022-10-26T16:57:12;11.30;99.90
18779;DHT22;9518;51.720;14.384;2022-10-26T16:59:41;11.30;99.90
18779;DHT22;9518;51.720;14.384;2022-10-26T17:02:10;11.30;99.90
18779;DHT22;9518;51.720;14.384;2022-10-26T17:04:40;11.20;99.90
18779;DHT22;9518;51.720;14.384;2022-10-26T17:07:07;11.20;99.90
18779;DHT22;9518;51.720;14.384;2022-10-26T17:09:33;11.20;99.90
18779;DHT22;9518;51.720;14.384;2022-10-26T17:12:00;11.00;99.90
18779;DHT22;9518;51.720;14.384;2022-10-26T17:14:27;11.00;99.90
18779;DHT22;9518;51.720;14.384;2022-10-26T17:16:56;11.00;99.90
18779;DHT22;9518;51.720;14.384;2022-10-26T17:19:23;10.90;99.90
18779;DHT22;9518;51.720;14.384;2022-10-26T17:21:51;11.00;99.90
18779;DHT22;9518;51.720;14.384;2022-10-26T17:24:18;11.00;99.90
18779;DHT22;9518;51.720;14.384;2022-10-26T17:26:45;11.00;99.90